createdAt,value
2024-01-25T00:00:11.313Z,101929.22
2024-01-25T00:02:37.706Z,102007.56
2024-01-25T00:05:04.596Z,102007.81
2024-01-25T00:07:31.081Z,102023.59
2024-01-25T00:09:58.997Z,101992.75
2024-01-25T00:12:25.617Z,101938.00
2024-01-25T00:14:53.743Z,102039.16
2024-01-25T00:17:20.133Z,102038.28
2024-01-25T00:19:46.580Z,101926.59
2024-01-25T00:22:13.181Z,102024.34
2024-01-25T00:24:39.852Z,102027.16
2024-01-25T00:27:06.299Z,101984.38
2024-01-25T00:29:32.722Z,101933.56
2024-01-25T00:31:59.211Z,101934.34
2024-01-25T00:34:26.051Z,102006.59
2024-01-25T00:36:52.779Z,102015.22
2024-01-25T00:39:19.376Z,101900.09
2024-01-25T00:41:51.608Z,102037.47
2024-01-25T00:44:18.794Z,101946.34
2024-01-25T00:46:47.939Z,102007.75
2024-01-25T00:49:15.341Z,102014.44
2024-01-25T00:51:48.112Z,102012.22
2024-01-25T00:54:15.895Z,101996.91
2024-01-25T00:56:42.595Z,102032.16
2024-01-25T00:59:09.407Z,102046.34
2024-01-25T01:01:36.243Z,102039.69
2024-01-25T01:04:03.260Z,102031.63
2024-01-25T01:06:30.211Z,101934.34
2024-01-25T01:08:57.287Z,101896.88
2024-01-25T01:11:23.761Z,102020.16
2024-01-25T01:13:50.160Z,102038.72
2024-01-25T01:16:17.261Z,102033.78
2024-01-25T01:18:43.829Z,101996.81
2024-01-25T01:21:10.389Z,102002.94
2024-01-25T01:23:36.760Z,102027.09
2024-01-25T01:26:05.080Z,102036.88
2024-01-25T01:28:31.493Z,102000.47
2024-01-25T01:30:58.024Z,102054.38
2024-01-25T01:33:24.777Z,101883.34
2024-01-25T01:35:51.498Z,101954.09
2024-01-25T01:38:18.217Z,102027.09
2024-01-25T01:40:45.891Z,102055.34
2024-01-25T01:43:21.231Z,102071.69
2024-01-25T01:45:48.018Z,102069.47
2024-01-25T01:48:15.101Z,102043.91
2024-01-25T01:50:43.640Z,101948.81
2024-01-25T01:53:11.487Z,102016.91
2024-01-25T01:55:39.209Z,102069.97
2024-01-25T01:58:05.912Z,102068.31
2024-01-25T02:00:34.335Z,102075.22
2024-01-25T02:03:01.493Z,102050.81
2024-01-25T02:05:27.869Z,102073.31
2024-01-25T02:07:55.378Z,102058.34
2024-01-25T02:10:21.957Z,102024.97
2024-01-25T02:12:48.391Z,102072.53
2024-01-25T02:15:14.756Z,102053.88
2024-01-25T02:17:42.450Z,102045.88
2024-01-25T02:20:09.704Z,102052.84
2024-01-25T02:22:36.194Z,102066.94
2024-01-25T02:25:02.681Z,102082.44
2024-01-25T02:27:29.163Z,102086.94
2024-01-25T02:29:56.012Z,102052.38
2024-01-25T02:32:22.906Z,102082.38
2024-01-25T02:34:49.455Z,101970.38
2024-01-25T02:37:16.356Z,102093.50
2024-01-25T02:39:43.093Z,102097.06
2024-01-25T02:42:09.637Z,102040.97
2024-01-25T02:44:36.066Z,102094.31
2024-01-25T02:47:02.570Z,102129.91
2024-01-25T02:49:29.333Z,101996.09
2024-01-25T02:51:55.874Z,102132.91
2024-01-25T02:54:22.444Z,102121.47
2024-01-25T02:56:48.812Z,102103.38
2024-01-25T02:59:15.274Z,102098.41
2024-01-25T03:01:42.957Z,102131.78
2024-01-25T03:04:09.870Z,102068.16
2024-01-25T03:06:36.589Z,102143.16
2024-01-25T03:09:05.630Z,102112.03
2024-01-25T03:11:32.683Z,102167.31
2024-01-25T03:13:59.399Z,102173.19
2024-01-25T03:16:25.889Z,102177.06
2024-01-25T03:18:52.453Z,102179.63
2024-01-25T03:21:18.972Z,102169.03
2024-01-25T03:23:45.855Z,102096.66
2024-01-25T03:26:12.229Z,102056.53
2024-01-25T03:28:40.364Z,102026.38
2024-01-25T03:31:07.518Z,102112.41
2024-01-25T03:33:34.206Z,102154.41
2024-01-25T03:36:04.874Z,102041.72
2024-01-25T03:38:31.443Z,102157.22
2024-01-25T03:40:59.699Z,102171.34
2024-01-25T03:43:27.610Z,102186.91
2024-01-25T03:46:00.049Z,102191.88
2024-01-25T03:48:26.623Z,102145.75
2024-01-25T03:50:57.170Z,102179.72
2024-01-25T03:53:24.411Z,102147.03
2024-01-25T03:55:51.051Z,102193.03
2024-01-25T03:58:20.757Z,102206.81
2024-01-25T04:00:47.418Z,102214.38
2024-01-25T04:03:14.512Z,102242.19
2024-01-25T04:05:40.994Z,102202.88
2024-01-25T04:08:07.594Z,102248.22
2024-01-25T04:10:34.440Z,102249.94
2024-01-25T04:13:05.856Z,102226.56
2024-01-25T04:15:32.381Z,102202.28
2024-01-25T04:17:59.097Z,102210.09
2024-01-25T04:20:25.880Z,102213.72
2024-01-25T04:22:52.356Z,102067.88
2024-01-25T04:25:18.800Z,102235.88
2024-01-25T04:27:45.358Z,102263.41
2024-01-25T04:30:12.004Z,102113.69
2024-01-25T04:32:38.538Z,102130.09
2024-01-25T04:35:05.417Z,102233.69
2024-01-25T04:37:31.931Z,102271.97
2024-01-25T04:39:58.355Z,102235.72
2024-01-25T04:42:24.822Z,102186.22
2024-01-25T04:44:51.204Z,102243.28
2024-01-25T04:47:18.042Z,102240.03
2024-01-25T04:49:44.546Z,102244.56
2024-01-25T04:52:11.284Z,102185.81
2024-01-25T04:54:37.838Z,102213.94
2024-01-25T04:57:07.630Z,102267.03
2024-01-25T04:59:34.602Z,102292.47
2024-01-25T05:02:01.618Z,102301.00
2024-01-25T05:04:30.607Z,102242.25
2024-01-25T05:06:57.340Z,102158.66
2024-01-25T05:09:23.897Z,102187.94
2024-01-25T05:11:50.356Z,102281.50
2024-01-25T05:14:18.344Z,102244.19
2024-01-25T05:16:44.751Z,102292.69
2024-01-25T05:19:11.363Z,102274.03
2024-01-25T05:21:38.258Z,102294.06
2024-01-25T05:24:05.205Z,102241.13
2024-01-25T05:26:31.575Z,102316.78
2024-01-25T05:28:58.078Z,102312.81
2024-01-25T05:31:24.586Z,102220.34
2024-01-25T05:33:51.143Z,102306.59
2024-01-25T05:36:17.678Z,102268.50
2024-01-25T05:38:44.142Z,102319.19
2024-01-25T05:41:10.489Z,102293.81
2024-01-25T05:43:37.277Z,102285.44
2024-01-25T05:46:05.108Z,102318.78
2024-01-25T05:48:32.275Z,102196.72
2024-01-25T05:50:58.906Z,102261.41
2024-01-25T05:53:25.442Z,102350.88
2024-01-25T05:55:51.837Z,102359.47
2024-01-25T05:58:18.314Z,102332.34
2024-01-25T06:00:44.917Z,102291.38
2024-01-25T06:03:11.970Z,102331.38
2024-01-25T06:05:38.847Z,102217.38
2024-01-25T06:08:05.567Z,102336.13
2024-01-25T06:10:32.243Z,102201.75
2024-01-25T06:12:58.756Z,102255.50
2024-01-25T06:15:25.233Z,102366.16
2024-01-25T06:17:51.701Z,102241.19
2024-01-25T06:20:18.671Z,102209.75
2024-01-25T06:22:45.368Z,102359.88
2024-01-25T06:25:12.002Z,102300.69
2024-01-25T06:27:38.631Z,102338.44
2024-01-25T06:30:05.628Z,102307.91
2024-01-25T06:32:32.394Z,102246.66
2024-01-25T06:34:59.449Z,102286.66
2024-01-25T06:37:26.046Z,102268.50
2024-01-25T06:39:52.519Z,102238.69
2024-01-25T06:42:18.957Z,102374.16
2024-01-25T06:44:45.663Z,102336.25
2024-01-25T06:47:12.200Z,102291.69
2024-01-25T06:49:38.795Z,102340.41
2024-01-25T06:52:05.813Z,102246.94
2024-01-25T06:54:32.410Z,102392.25
2024-01-25T06:56:59.222Z,102318.88
2024-01-25T06:59:25.725Z,102338.28
2024-01-25T07:01:52.814Z,102335.63
2024-01-25T07:04:19.806Z,102423.25
2024-01-25T07:06:46.967Z,102455.22
2024-01-25T07:09:13.693Z,102385.19
2024-01-25T07:11:40.085Z,102402.16
2024-01-25T07:14:07.197Z,102388.94
2024-01-25T07:16:33.922Z,102327.09
2024-01-25T07:19:00.508Z,102416.84
2024-01-25T07:21:27.514Z,102467.47
2024-01-25T07:23:53.977Z,102449.81
2024-01-25T07:26:20.372Z,102395.06
2024-01-25T07:28:47.448Z,102477.72
2024-01-25T07:31:14.180Z,102437.25
2024-01-25T07:33:40.898Z,102389.88
2024-01-25T07:36:07.634Z,102494.28
2024-01-25T07:38:34.159Z,102434.53
2024-01-25T07:41:00.585Z,102384.34
2024-01-25T07:43:27.141Z,102486.38
2024-01-25T07:45:54.970Z,102482.94
2024-01-25T07:48:21.903Z,102413.00
2024-01-25T07:50:48.722Z,102358.13
2024-01-25T07:53:17.244Z,102483.78
2024-01-25T07:55:43.960Z,102512.63
2024-01-25T07:58:10.454Z,102423.16
2024-01-25T08:00:37.146Z,102498.53
2024-01-25T08:03:04.295Z,102435.97
2024-01-25T08:05:37.597Z,102404.81
2024-01-25T08:08:11.395Z,102519.00
2024-01-25T08:10:38.039Z,102442.84
2024-01-25T08:13:07.472Z,102519.59
2024-01-25T08:15:34.987Z,102543.19
2024-01-25T08:18:02.039Z,102428.38
2024-01-25T08:20:30.314Z,102515.66
2024-01-25T08:22:56.797Z,102491.44
2024-01-25T08:25:23.379Z,102471.97
2024-01-25T08:27:50.450Z,102505.59
2024-01-25T08:30:17.034Z,102502.53
2024-01-25T08:32:43.874Z,102416.69
2024-01-25T08:35:11.398Z,102494.16
2024-01-25T08:37:39.243Z,102483.13
2024-01-25T08:40:07.326Z,102484.63
2024-01-25T08:42:34.029Z,102389.41
2024-01-25T08:45:00.724Z,102549.03
2024-01-25T08:47:27.104Z,102515.59
2024-01-25T08:49:53.957Z,102445.38
2024-01-25T08:52:20.532Z,102394.88
2024-01-25T08:54:47.022Z,102507.00
2024-01-25T08:57:13.591Z,102386.84
2024-01-25T08:59:39.958Z,102507.91
2024-01-25T09:02:07.335Z,102395.41
2024-01-25T09:04:34.237Z,102445.91
2024-01-25T09:07:01.404Z,102379.56
2024-01-25T09:09:28.022Z,102457.22
2024-01-25T09:11:54.985Z,102383.50
2024-01-25T09:14:22.301Z,102497.34
2024-01-25T09:16:49.602Z,102537.84
2024-01-25T09:19:17.042Z,102420.00
2024-01-25T09:21:43.943Z,102552.00
2024-01-25T09:24:10.844Z,102537.50
2024-01-25T09:26:37.241Z,102523.41
2024-01-25T09:29:05.847Z,102517.25
2024-01-25T09:31:32.504Z,102556.59
2024-01-25T09:33:59.469Z,102547.25
2024-01-25T09:36:26.188Z,102477.53
2024-01-25T09:38:53.149Z,102533.41
2024-01-25T09:41:19.660Z,102526.19
2024-01-25T09:43:47.376Z,102467.88
2024-01-25T09:46:18.474Z,102445.72
2024-01-25T09:48:47.605Z,102584.06
2024-01-25T09:51:14.831Z,102550.66
2024-01-25T09:53:43.054Z,102591.00
2024-01-25T09:56:12.048Z,102583.66
2024-01-25T09:58:43.529Z,102587.59
2024-01-25T10:01:11.971Z,102617.38
2024-01-25T10:03:41.291Z,102518.78
2024-01-25T10:06:08.896Z,102507.94
2024-01-25T10:08:35.889Z,102612.44
2024-01-25T10:11:02.370Z,102596.34
2024-01-25T10:13:29.359Z,102614.25
2024-01-25T10:15:56.750Z,102620.09
2024-01-25T10:18:29.487Z,102527.38
2024-01-25T10:20:57.331Z,102615.50
2024-01-25T10:23:24.479Z,102592.66
2024-01-25T10:25:51.222Z,102508.94
2024-01-25T10:28:18.740Z,102564.00
2024-01-25T10:30:45.579Z,102631.91
2024-01-25T10:33:13.070Z,102596.13
2024-01-25T10:35:42.909Z,102584.72
2024-01-25T10:38:09.638Z,102596.72
2024-01-25T10:40:38.037Z,102570.22
2024-01-25T10:43:04.873Z,102526.50
2024-01-25T10:45:31.530Z,102605.13
2024-01-25T10:48:00.604Z,102545.97
2024-01-25T10:50:27.443Z,102572.84
2024-01-25T10:52:54.735Z,102597.53
2024-01-25T10:55:21.705Z,102522.06
2024-01-25T10:57:48.548Z,102558.81
2024-01-25T11:00:17.584Z,102609.63
2024-01-25T11:02:47.487Z,102600.13
2024-01-25T11:05:16.227Z,102552.69
2024-01-25T11:07:48.404Z,102600.78
2024-01-25T11:10:18.255Z,102640.47
2024-01-25T11:12:59.698Z,102647.66
2024-01-25T11:15:33.587Z,102635.56
2024-01-25T11:18:02.281Z,102641.31
2024-01-25T11:20:30.648Z,102642.41
2024-01-25T11:23:04.012Z,102486.09
2024-01-25T11:25:31.822Z,102571.44
2024-01-25T11:27:59.251Z,102636.91
2024-01-25T11:30:31.438Z,102643.88
2024-01-25T11:32:58.132Z,102608.47
2024-01-25T11:35:26.556Z,102581.69
2024-01-25T11:37:53.883Z,102625.56
2024-01-25T11:40:21.476Z,102609.38
2024-01-25T11:42:51.762Z,102604.06
2024-01-25T11:45:18.685Z,102593.53
2024-01-25T11:47:46.010Z,102629.16
2024-01-25T11:50:14.027Z,102633.97
2024-01-25T11:52:40.842Z,102458.44
2024-01-25T11:55:09.851Z,102571.97
2024-01-25T11:57:44.788Z,102597.59
2024-01-25T12:00:15.545Z,102636.94
2024-01-25T12:02:42.610Z,102607.44
2024-01-25T12:05:11.647Z,102627.72
2024-01-25T12:07:40.617Z,102615.69
2024-01-25T12:10:09.640Z,102522.38
2024-01-25T12:12:36.667Z,102609.59
2024-01-25T12:15:06.270Z,102614.88
2024-01-25T12:17:34.179Z,102632.41
2024-01-25T12:20:01.291Z,102641.31
2024-01-25T12:22:29.343Z,102639.84
2024-01-25T12:25:00.403Z,102612.03
2024-01-25T12:27:28.213Z,102631.03
2024-01-25T12:29:54.984Z,102628.00
2024-01-25T12:32:22.199Z,102636.91
2024-01-25T12:34:56.415Z,102598.47
2024-01-25T12:37:23.445Z,102598.00
2024-01-25T12:39:53.015Z,102616.31
2024-01-25T12:42:20.869Z,102627.16
2024-01-25T12:44:48.305Z,102625.78
2024-01-25T12:47:15.587Z,102578.38
2024-01-25T12:49:44.203Z,102608.28
2024-01-25T12:52:11.954Z,102505.84
2024-01-25T12:54:39.071Z,102630.56
2024-01-25T12:57:06.628Z,102639.31
2024-01-25T12:59:35.340Z,102631.44
2024-01-25T13:02:02.246Z,102618.66
2024-01-25T13:04:29.027Z,102623.16
2024-01-25T13:06:57.038Z,102606.06
2024-01-25T13:09:24.903Z,102591.75
2024-01-25T13:11:53.346Z,102601.81
2024-01-25T13:14:19.733Z,102616.72
2024-01-25T13:16:46.531Z,102634.84
2024-01-25T13:19:13.209Z,102622.41
2024-01-25T13:21:40.275Z,102617.69
2024-01-25T13:24:07.866Z,102580.28
2024-01-25T13:26:36.616Z,102641.16
2024-01-25T13:29:03.118Z,102471.03
2024-01-25T13:31:29.624Z,102518.13
2024-01-25T13:33:56.197Z,102638.53
2024-01-25T13:36:22.880Z,102614.84
2024-01-25T13:38:49.372Z,102595.66
2024-01-25T13:41:15.791Z,102508.81
2024-01-25T13:43:42.147Z,102619.06
2024-01-25T13:46:08.576Z,102588.44
2024-01-25T13:48:35.408Z,102485.50
2024-01-25T13:51:01.917Z,102469.38
2024-01-25T13:53:28.316Z,102611.69
2024-01-25T13:55:54.714Z,102475.25
2024-01-25T13:58:21.159Z,102542.00
2024-01-25T14:00:47.785Z,102587.38
2024-01-25T14:03:17.139Z,102550.13
2024-01-25T14:05:44.007Z,102600.63
2024-01-25T14:08:10.439Z,102520.47
2024-01-25T14:10:37.527Z,102526.31
2024-01-25T14:13:04.528Z,102436.91
2024-01-25T14:15:31.401Z,102606.97
2024-01-25T14:17:58.079Z,102580.44
2024-01-25T14:20:24.531Z,102620.56
2024-01-25T14:22:51.155Z,102622.16
2024-01-25T14:25:18.023Z,102596.78
2024-01-25T14:27:45.215Z,102634.97
2024-01-25T14:30:12.625Z,102510.75
2024-01-25T14:32:39.314Z,102629.31
2024-01-25T14:35:06.261Z,102610.34
2024-01-25T14:37:33.098Z,102615.97
2024-01-25T14:40:09.292Z,102617.34
2024-01-25T14:42:46.138Z,102643.31
2024-01-25T14:45:12.690Z,102576.03
2024-01-25T14:47:39.199Z,102615.88
2024-01-25T14:50:06.681Z,102625.31
2024-01-25T14:52:35.126Z,102572.25
2024-01-25T14:55:03.027Z,102643.66
2024-01-25T14:57:29.655Z,102574.69
2024-01-25T14:59:56.054Z,102561.72
2024-01-25T15:02:22.523Z,102618.47
2024-01-25T15:04:48.963Z,102620.16
2024-01-25T15:07:17.130Z,102643.94
2024-01-25T15:09:43.594Z,102627.97
2024-01-25T15:12:09.988Z,102648.25
2024-01-25T15:14:36.430Z,102639.31
2024-01-25T15:17:03.170Z,102561.06
2024-01-25T15:19:29.902Z,102639.44
2024-01-25T15:21:56.367Z,102598.00
2024-01-25T15:24:22.778Z,102627.91
2024-01-25T15:26:49.190Z,102647.91
2024-01-25T15:29:15.859Z,102568.53
2024-01-25T15:31:42.423Z,102655.41
2024-01-25T15:34:09.045Z,102629.72
2024-01-25T15:36:36.873Z,102567.00
2024-01-25T15:39:04.676Z,102543.31
2024-01-25T15:41:31.304Z,102573.03
2024-01-25T15:44:01.180Z,102524.00
2024-01-25T15:46:27.803Z,102626.38
2024-01-25T15:48:55.720Z,102641.03
2024-01-25T15:51:23.268Z,102538.75
2024-01-25T15:53:49.909Z,102568.09
2024-01-25T15:56:16.616Z,102546.59
2024-01-25T15:58:43.066Z,102657.09
2024-01-25T16:01:09.588Z,102559.41
2024-01-25T16:03:36.346Z,102541.69
2024-01-25T16:06:04.239Z,102563.38
2024-01-25T16:08:30.665Z,102634.38
2024-01-25T16:10:57.164Z,102554.63
2024-01-25T16:13:24.002Z,102605.19
2024-01-25T16:15:50.483Z,102644.88
2024-01-25T16:18:18.634Z,102555.47
2024-01-25T16:20:45.620Z,102525.72
2024-01-25T16:23:14.666Z,102584.41
2024-01-25T16:25:41.158Z,102619.34
2024-01-25T16:28:07.694Z,102634.72
2024-01-25T16:30:35.358Z,102521.38
2024-01-25T16:33:01.935Z,102524.06
2024-01-25T16:35:28.337Z,102596.06
2024-01-25T16:37:54.787Z,102652.69
2024-01-25T16:40:21.173Z,102582.69
2024-01-25T16:42:48.200Z,102499.94
2024-01-25T16:45:17.248Z,102540.28
2024-01-25T16:47:43.836Z,102467.72
2024-01-25T16:50:10.668Z,102499.69
2024-01-25T16:52:37.338Z,102564.56
2024-01-25T16:55:04.025Z,102661.63
2024-01-25T16:57:30.719Z,102676.97
2024-01-25T16:59:57.286Z,102560.66
2024-01-25T17:02:23.794Z,102544.78
2024-01-25T17:04:51.538Z,102663.88
2024-01-25T17:07:19.855Z,102549.97
2024-01-25T17:09:46.670Z,102655.06
2024-01-25T17:12:16.200Z,102571.28
2024-01-25T17:14:43.673Z,102620.75
2024-01-25T17:17:13.730Z,102639.56
2024-01-25T17:19:40.368Z,102535.78
2024-01-25T17:22:08.579Z,102583.47
2024-01-25T17:24:35.497Z,102591.47
2024-01-25T17:27:01.996Z,102662.53
2024-01-25T17:29:28.756Z,102651.38
2024-01-25T17:31:55.673Z,102524.06
2024-01-25T17:34:22.389Z,102454.34
2024-01-25T17:36:48.970Z,102503.22
2024-01-25T17:39:15.460Z,102638.13
2024-01-25T17:41:42.607Z,102621.56
2024-01-25T17:44:09.637Z,102608.22
2024-01-25T17:46:36.196Z,102432.25
2024-01-25T17:49:06.130Z,102566.78
2024-01-25T17:51:32.998Z,102632.97
2024-01-25T17:53:59.745Z,102607.91
2024-01-25T17:56:26.165Z,102585.25
2024-01-25T17:59:02.511Z,102568.06
2024-01-25T18:01:29.450Z,102603.28
2024-01-25T18:03:55.990Z,102511.47
2024-01-25T18:06:22.650Z,102476.28
2024-01-25T18:08:49.097Z,102613.66
2024-01-25T18:11:16.745Z,102525.63
2024-01-25T18:13:45.986Z,102515.53
2024-01-25T18:16:12.504Z,102492.97
2024-01-25T18:18:39.367Z,102559.44
2024-01-25T18:21:06.254Z,102621.78
2024-01-25T18:23:36.384Z,102508.84
2024-01-25T18:26:03.700Z,102628.69
2024-01-25T18:28:30.321Z,102558.38
2024-01-25T18:30:58.743Z,102623.78
2024-01-25T18:33:31.462Z,102616.88
2024-01-25T18:35:58.007Z,102478.53
2024-01-25T18:38:24.708Z,102545.47
2024-01-25T18:40:51.423Z,102531.75
2024-01-25T18:43:19.766Z,102599.25
2024-01-25T18:45:47.940Z,102483.22
2024-01-25T18:48:14.606Z,102535.28
2024-01-25T18:50:41.250Z,102521.63
2024-01-25T18:53:07.903Z,102613.84
2024-01-25T18:55:36.990Z,102484.91
2024-01-25T18:58:03.831Z,102524.88
2024-01-25T19:00:30.705Z,102602.78
2024-01-25T19:02:57.492Z,102613.38
2024-01-25T19:05:27.415Z,102386.44
2024-01-25T19:07:55.346Z,102460.34
2024-01-25T19:10:24.422Z,102611.47
2024-01-25T19:12:51.082Z,102404.44
2024-01-25T19:15:21.276Z,102414.31
2024-01-25T19:17:48.027Z,102500.84
2024-01-25T19:20:14.816Z,102488.00
2024-01-25T19:22:41.440Z,102536.63
2024-01-25T19:25:08.593Z,102375.94
2024-01-25T19:27:37.574Z,102580.75
2024-01-25T19:30:04.479Z,102527.56
2024-01-25T19:32:31.425Z,102376.47
2024-01-25T19:34:58.214Z,102599.28
2024-01-25T19:37:24.750Z,102390.03
2024-01-25T19:39:51.320Z,102487.16
2024-01-25T19:42:18.042Z,102463.75
2024-01-25T19:44:44.887Z,102554.56
2024-01-25T19:47:12.411Z,102399.69
2024-01-25T19:49:39.086Z,102522.59
2024-01-25T19:52:06.237Z,102602.63
2024-01-25T19:54:35.103Z,102573.03
2024-01-25T19:57:01.565Z,102551.72
2024-01-25T19:59:28.303Z,102589.78
2024-01-25T20:01:55.322Z,102555.22
2024-01-25T20:04:22.248Z,102513.88
2024-01-25T20:06:49.076Z,102526.81
2024-01-25T20:09:15.741Z,102576.63
2024-01-25T20:11:42.160Z,102547.78
2024-01-25T20:14:09.427Z,102539.81
2024-01-25T20:16:36.013Z,102421.94
2024-01-25T20:19:02.524Z,102452.72
2024-01-25T20:21:29.065Z,102478.94
2024-01-25T20:23:56.052Z,102543.84
2024-01-25T20:26:23.763Z,102511.78
2024-01-25T20:28:50.413Z,102530.16
2024-01-25T20:31:18.923Z,102363.75
2024-01-25T20:33:45.996Z,102449.69
2024-01-25T20:36:12.572Z,102442.16
2024-01-25T20:38:39.015Z,102448.03
2024-01-25T20:41:05.682Z,102532.50
2024-01-25T20:43:32.087Z,102541.16
2024-01-25T20:45:58.538Z,102466.63
2024-01-25T20:48:25.193Z,102515.59
2024-01-25T20:50:51.956Z,102517.69
2024-01-25T20:53:19.549Z,102368.84
2024-01-25T20:55:46.023Z,102342.63
2024-01-25T20:58:12.471Z,102537.78
2024-01-25T21:00:50.468Z,102306.97
2024-01-25T21:03:19.572Z,102306.44
2024-01-25T21:05:51.468Z,102339.63
2024-01-25T21:08:27.981Z,102367.34
2024-01-25T21:10:57.815Z,102308.81
2024-01-25T21:13:24.627Z,102429.34
2024-01-25T21:15:51.113Z,102422.31
2024-01-25T21:18:17.737Z,102392.53
2024-01-25T21:20:44.539Z,102356.38
2024-01-25T21:23:11.070Z,102463.34
2024-01-25T21:25:37.553Z,102400.88
2024-01-25T21:28:04.468Z,102403.38
2024-01-25T21:30:31.034Z,102445.00
2024-01-25T21:32:57.540Z,102423.97
2024-01-25T21:35:26.801Z,102459.41
2024-01-25T21:37:53.229Z,102508.88
2024-01-25T21:40:19.790Z,102504.19
2024-01-25T21:42:50.592Z,102502.72
2024-01-25T21:45:17.182Z,102413.22
2024-01-25T21:47:43.859Z,102460.41
2024-01-25T21:50:13.314Z,102354.88
2024-01-25T21:52:41.058Z,102389.63
2024-01-25T21:55:12.567Z,102271.66
2024-01-25T21:57:47.958Z,102332.94
2024-01-25T22:00:18.573Z,102281.19
2024-01-25T22:02:46.693Z,102419.09
2024-01-25T22:05:15.034Z,102334.50
2024-01-25T22:07:41.948Z,102495.97
2024-01-25T22:10:08.885Z,102389.38
2024-01-25T22:12:35.610Z,102374.47
2024-01-25T22:15:02.019Z,102385.94
2024-01-25T22:17:28.674Z,102396.41
2024-01-25T22:19:55.236Z,102277.31
2024-01-25T22:22:21.915Z,102344.91
2024-01-25T22:24:48.667Z,102259.91
2024-01-25T22:27:15.123Z,102360.22
2024-01-25T22:29:41.727Z,102352.50
2024-01-25T22:32:08.193Z,102320.34
2024-01-25T22:34:34.676Z,102461.22
2024-01-25T22:37:01.678Z,102247.88
2024-01-25T22:39:28.264Z,102399.88
2024-01-25T22:41:54.729Z,102451.09
2024-01-25T22:44:21.210Z,102428.72
2024-01-25T22:46:56.306Z,102344.19
2024-01-25T22:49:25.986Z,102429.78
2024-01-25T22:51:52.601Z,102269.53
2024-01-25T22:54:19.724Z,102408.31
2024-01-25T22:56:49.931Z,102345.53
2024-01-25T22:59:16.964Z,102443.75
2024-01-25T23:01:43.713Z,102184.44
2024-01-25T23:04:10.869Z,102271.59
2024-01-25T23:06:37.384Z,102436.19
2024-01-25T23:09:05.205Z,102227.59
2024-01-25T23:11:32.495Z,102351.63
2024-01-25T23:13:59.446Z,102295.88
2024-01-25T23:16:26.160Z,102302.81
2024-01-25T23:18:53.092Z,102418.47
2024-01-25T23:21:20.059Z,102394.13
2024-01-25T23:23:46.804Z,102229.19
2024-01-25T23:26:13.920Z,102262.97
2024-01-25T23:28:41.596Z,102374.00
2024-01-25T23:31:08.270Z,102393.63
2024-01-25T23:33:35.039Z,102406.88
2024-01-25T23:36:01.576Z,102380.00
2024-01-25T23:38:28.046Z,102412.84
2024-01-25T23:40:54.524Z,102266.25
2024-01-25T23:43:23.083Z,102260.69
2024-01-25T23:45:49.858Z,102364.69
2024-01-25T23:48:16.766Z,102234.31
2024-01-25T23:50:43.507Z,102262.53
2024-01-25T23:53:10.060Z,102367.00
2024-01-25T23:55:36.479Z,102288.31
2024-01-25T23:58:03.258Z,102295.56
